sensor_id;sensor_type;location;lat;lon;timestamp;P1;durP1;ratioP1;P2;durP2;ratioP2
40322;SDS011;26030;51.164;17.100;2023-03-14T00:00:25;7.00;;;3.40;;
40322;SDS011;26030;51.164;17.100;2023-03-14T00:05:49;6.90;;;3.70;;
40322;SDS011;26030;51.164;17.100;2023-03-14T00:10:53;8.30;;;3.80;;
40322;SDS011;26030;51.164;17.100;2023-03-14T00:16:02;9.40;;;3.40;;
40322;SDS011;26030;51.164;17.100;2023-03-14T00:21:08;6.10;;;3.70;;
40322;SDS011;26030;51.164;17.100;2023-03-14T00:26:17;4.60;;;3.30;;
40322;SDS011;26030;51.164;17.100;2023-03-14T00:31:21;6.30;;;3.00;;
40322;SDS011;26030;51.164;17.100;2023-03-14T00:36:25;6.20;;;3.40;;
40322;SDS011;26030;51.164;17.100;2023-03-14T00:41:29;6.30;;;3.30;;
40322;SDS011;26030;51.164;17.100;2023-03-14T00:46:33;7.00;;;3.30;;
40322;SDS011;26030;51.164;17.100;2023-03-14T00:51:37;5.20;;;3.50;;
40322;SDS011;26030;51.164;17.100;2023-03-14T00:56:41;7.60;;;3.50;;
40322;SDS011;26030;51.164;17.100;2023-03-14T01:01:46;5.30;;;3.30;;
40322;SDS011;26030;51.164;17.100;2023-03-14T01:06:50;6.20;;;3.30;;
40322;SDS011;26030;51.164;17.100;2023-03-14T01:11:54;6.00;;;3.20;;
40322;SDS011;26030;51.164;17.100;2023-03-14T01:16:59;6.30;;;3.70;;
40322;SDS011;26030;51.164;17.100;2023-03-14T01:22:04;4.00;;;2.80;;
40322;SDS011;26030;51.164;17.100;2023-03-14T01:27:08;5.10;;;3.20;;
40322;SDS011;26030;51.164;17.100;2023-03-14T01:32:13;5.70;;;3.50;;
40322;SDS011;26030;51.164;17.100;2023-03-14T01:37:17;4.30;;;3.10;;
40322;SDS011;26030;51.164;17.100;2023-03-14T01:42:22;5.50;;;2.90;;
40322;SDS011;26030;51.164;17.100;2023-03-14T01:47:27;4.40;;;2.50;;
40322;SDS011;26030;51.164;17.100;2023-03-14T01:52:38;3.30;;;2.70;;
40322;SDS011;26030;51.164;17.100;2023-03-14T01:57:49;3.70;;;2.70;;
40322;SDS011;26030;51.164;17.100;2023-03-14T02:02:58;3.70;;;2.50;;
40322;SDS011;26030;51.164;17.100;2023-03-14T02:08:39;3.60;;;2.80;;
40322;SDS011;26030;51.164;17.100;2023-03-14T02:13:50;3.20;;;2.60;;
40322;SDS011;26030;51.164;17.100;2023-03-14T02:19:14;3.70;;;2.60;;
40322;SDS011;26030;51.164;17.100;2023-03-14T02:30:12;3.60;;;2.90;;
40322;SDS011;26030;51.164;17.100;2023-03-14T02:35:23;2.80;;;2.40;;
40322;SDS011;26030;51.164;17.100;2023-03-14T02:40:29;4.10;;;2.90;;
40322;SDS011;26030;51.164;17.100;2023-03-14T02:45:40;4.40;;;2.50;;
40322;SDS011;26030;51.164;17.100;2023-03-14T02:50:47;3.50;;;2.70;;
40322;SDS011;26030;51.164;17.100;2023-03-14T02:55:52;4.30;;;2.70;;
40322;SDS011;26030;51.164;17.100;2023-03-14T03:00:58;3.10;;;2.40;;
40322;SDS011;26030;51.164;17.100;2023-03-14T03:06:02;3.00;;;2.50;;
40322;SDS011;26030;51.164;17.100;2023-03-14T03:11:07;3.20;;;2.40;;
40322;SDS011;26030;51.164;17.100;2023-03-14T03:16:11;3.50;;;2.60;;
40322;SDS011;26030;51.164;17.100;2023-03-14T03:21:17;3.60;;;3.00;;
40322;SDS011;26030;51.164;17.100;2023-03-14T03:26:22;4.00;;;2.80;;
40322;SDS011;26030;51.164;17.100;2023-03-14T03:31:27;3.60;;;2.70;;
40322;SDS011;26030;51.164;17.100;2023-03-14T03:36:31;4.30;;;2.30;;
40322;SDS011;26030;51.164;17.100;2023-03-14T03:41:36;3.00;;;2.20;;
40322;SDS011;26030;51.164;17.100;2023-03-14T03:46:40;5.70;;;2.30;;
40322;SDS011;26030;51.164;17.100;2023-03-14T03:51:45;3.00;;;2.50;;
40322;SDS011;26030;51.164;17.100;2023-03-14T03:56:49;4.50;;;2.30;;
40322;SDS011;26030;51.164;17.100;2023-03-14T04:01:54;2.60;;;2.40;;
40322;SDS011;26030;51.164;17.100;2023-03-14T04:06:58;3.60;;;2.60;;
40322;SDS011;26030;51.164;17.100;2023-03-14T04:12:03;2.40;;;2.10;;
40322;SDS011;26030;51.164;17.100;2023-03-14T04:17:17;3.50;;;2.30;;
40322;SDS011;26030;51.164;17.100;2023-03-14T04:22:22;2.90;;;2.20;;
40322;SDS011;26030;51.164;17.100;2023-03-14T04:27:27;2.50;;;2.20;;
40322;SDS011;26030;51.164;17.100;2023-03-14T04:32:32;3.20;;;2.30;;
40322;SDS011;26030;51.164;17.100;2023-03-14T04:37:36;4.00;;;2.60;;
40322;SDS011;26030;51.164;17.100;2023-03-14T04:42:43;2.80;;;2.30;;
40322;SDS011;26030;51.164;17.100;2023-03-14T04:47:47;2.00;;;1.90;;
40322;SDS011;26030;51.164;17.100;2023-03-14T04:52:54;2.70;;;2.30;;
40322;SDS011;26030;51.164;17.100;2023-03-14T04:57:59;2.40;;;2.20;;
40322;SDS011;26030;51.164;17.100;2023-03-14T05:03:03;2.70;;;2.30;;
40322;SDS011;26030;51.164;17.100;2023-03-14T05:08:09;1.70;;;1.60;;
40322;SDS011;26030;51.164;17.100;2023-03-14T05:13:26;2.50;;;2.00;;
40322;SDS011;26030;51.164;17.100;2023-03-14T05:18:50;2.40;;;1.90;;
40322;SDS011;26030;51.164;17.100;2023-03-14T05:24:14;2.20;;;2.00;;
40322;SDS011;26030;51.164;17.100;2023-03-14T05:29:41;4.50;;;1.90;;
40322;SDS011;26030;51.164;17.100;2023-03-14T05:35:04;2.50;;;2.30;;
40322;SDS011;26030;51.164;17.100;2023-03-14T05:40:32;2.40;;;2.00;;
40322;SDS011;26030;51.164;17.100;2023-03-14T05:46:14;3.00;;;1.90;;
40322;SDS011;26030;51.164;17.100;2023-03-14T05:51:48;2.10;;;1.90;;
40322;SDS011;26030;51.164;17.100;2023-03-14T05:57:21;2.50;;;2.10;;
40322;SDS011;26030;51.164;17.100;2023-03-14T06:02:44;2.30;;;1.90;;
40322;SDS011;26030;51.164;17.100;2023-03-14T06:07:54;2.40;;;2.10;;
40322;SDS011;26030;51.164;17.100;2023-03-14T06:12:58;2.60;;;1.90;;
40322;SDS011;26030;51.164;17.100;2023-03-14T06:18:03;2.20;;;2.00;;
40322;SDS011;26030;51.164;17.100;2023-03-14T06:23:08;2.30;;;1.70;;
40322;SDS011;26030;51.164;17.100;2023-03-14T06:28:12;1.80;;;1.70;;
40322;SDS011;26030;51.164;17.100;2023-03-14T06:33:17;2.10;;;1.80;;
40322;SDS011;26030;51.164;17.100;2023-03-14T06:38:22;1.70;;;1.60;;
40322;SDS011;26030;51.164;17.100;2023-03-14T06:43:29;2.00;;;1.70;;
40322;SDS011;26030;51.164;17.100;2023-03-14T06:48:33;2.20;;;2.00;;
40322;SDS011;26030;51.164;17.100;2023-03-14T06:53:37;4.60;;;1.80;;
40322;SDS011;26030;51.164;17.100;2023-03-14T06:58:42;2.30;;;1.70;;
40322;SDS011;26030;51.164;17.100;2023-03-14T07:03:46;2.20;;;1.70;;
40322;SDS011;26030;51.164;17.100;2023-03-14T07:08:51;5.10;;;2.30;;
40322;SDS011;26030;51.164;17.100;2023-03-14T07:13:55;4.50;;;2.00;;
40322;SDS011;26030;51.164;17.100;2023-03-14T07:19:02;3.00;;;2.00;;
40322;SDS011;26030;51.164;17.100;2023-03-14T07:24:07;7.60;;;2.50;;
40322;SDS011;26030;51.164;17.100;2023-03-14T07:29:11;5.50;;;1.90;;
40322;SDS011;26030;51.164;17.100;2023-03-14T07:34:16;3.10;;;2.10;;
40322;SDS011;26030;51.164;17.100;2023-03-14T07:39:21;3.80;;;2.10;;
40322;SDS011;26030;51.164;17.100;2023-03-14T07:44:36;8.40;;;2.60;;
40322;SDS011;26030;51.164;17.100;2023-03-14T07:49:40;3.50;;;1.90;;
40322;SDS011;26030;51.164;17.100;2023-03-14T07:54:45;7.90;;;2.10;;
40322;SDS011;26030;51.164;17.100;2023-03-14T07:59:49;4.70;;;1.80;;
40322;SDS011;26030;51.164;17.100;2023-03-14T08:04:53;8.60;;;2.10;;
40322;SDS011;26030;51.164;17.100;2023-03-14T08:09:57;7.20;;;1.90;;
40322;SDS011;26030;51.164;17.100;2023-03-14T08:15:01;10.50;;;2.20;;
40322;SDS011;26030;51.164;17.100;2023-03-14T08:20:06;4.90;;;2.30;;
40322;SDS011;26030;51.164;17.100;2023-03-14T08:25:12;3.10;;;2.00;;
40322;SDS011;26030;51.164;17.100;2023-03-14T08:30:18;6.00;;;2.30;;
40322;SDS011;26030;51.164;17.100;2023-03-14T08:35:22;2.50;;;1.80;;
40322;SDS011;26030;51.164;17.100;2023-03-14T08:40:27;3.40;;;1.80;;
40322;SDS011;26030;51.164;17.100;2023-03-14T08:45:31;7.00;;;1.80;;
40322;SDS011;26030;51.164;17.100;2023-03-14T08:50:35;6.00;;;2.00;;
40322;SDS011;26030;51.164;17.100;2023-03-14T08:55:39;3.20;;;2.00;;
40322;SDS011;26030;51.164;17.100;2023-03-14T09:00:43;2.20;;;1.80;;
40322;SDS011;26030;51.164;17.100;2023-03-14T09:05:47;3.30;;;1.90;;
40322;SDS011;26030;51.164;17.100;2023-03-14T09:10:51;5.20;;;1.80;;
40322;SDS011;26030;51.164;17.100;2023-03-14T09:15:56;3.90;;;2.10;;
40322;SDS011;26030;51.164;17.100;2023-03-14T09:21:01;5.20;;;2.30;;
40322;SDS011;26030;51.164;17.100;2023-03-14T09:26:05;2.20;;;1.60;;
40322;SDS011;26030;51.164;17.100;2023-03-14T09:31:11;2.80;;;1.80;;
40322;SDS011;26030;51.164;17.100;2023-03-14T09:36:15;3.20;;;2.10;;
40322;SDS011;26030;51.164;17.100;2023-03-14T09:41:33;2.00;;;1.70;;
40322;SDS011;26030;51.164;17.100;2023-03-14T09:46:38;2.10;;;1.60;;
40322;SDS011;26030;51.164;17.100;2023-03-14T09:51:45;2.50;;;2.10;;
40322;SDS011;26030;51.164;17.100;2023-03-14T09:56:51;3.20;;;1.80;;
40322;SDS011;26030;51.164;17.100;2023-03-14T10:02:00;2.00;;;1.80;;
40322;SDS011;26030;51.164;17.100;2023-03-14T10:07:05;3.00;;;2.10;;
40322;SDS011;26030;51.164;17.100;2023-03-14T10:12:09;3.60;;;2.10;;
40322;SDS011;26030;51.164;17.100;2023-03-14T10:17:13;2.20;;;1.70;;
40322;SDS011;26030;51.164;17.100;2023-03-14T10:22:18;1.90;;;1.70;;
40322;SDS011;26030;51.164;17.100;2023-03-14T10:27:28;3.10;;;1.70;;
40322;SDS011;26030;51.164;17.100;2023-03-14T10:32:34;1.80;;;1.70;;
40322;SDS011;26030;51.164;17.100;2023-03-14T10:37:56;1.90;;;1.80;;
40322;SDS011;26030;51.164;17.100;2023-03-14T10:43:04;2.90;;;2.10;;
40322;SDS011;26030;51.164;17.100;2023-03-14T10:53:19;2.20;;;1.80;;
40322;SDS011;26030;51.164;17.100;2023-03-14T10:58:28;2.80;;;2.10;;
40322;SDS011;26030;51.164;17.100;2023-03-14T11:03:36;6.20;;;2.10;;
40322;SDS011;26030;51.164;17.100;2023-03-14T11:08:50;2.00;;;1.80;;
40322;SDS011;26030;51.164;17.100;2023-03-14T11:30:01;2.80;;;2.40;;
40322;SDS011;26030;51.164;17.100;2023-03-14T11:35:38;2.00;;;1.80;;
40322;SDS011;26030;51.164;17.100;2023-03-14T11:40:41;2.70;;;2.10;;
40322;SDS011;26030;51.164;17.100;2023-03-14T11:45:47;2.20;;;2.00;;
40322;SDS011;26030;51.164;17.100;2023-03-14T11:50:55;3.80;;;2.50;;
40322;SDS011;26030;51.164;17.100;2023-03-14T11:56:00;4.30;;;2.20;;
40322;SDS011;26030;51.164;17.100;2023-03-14T12:01:09;3.50;;;2.10;;
40322;SDS011;26030;51.164;17.100;2023-03-14T12:06:22;2.10;;;1.80;;
40322;SDS011;26030;51.164;17.100;2023-03-14T12:16:46;4.50;;;1.90;;
40322;SDS011;26030;51.164;17.100;2023-03-14T12:22:01;4.10;;;1.90;;
40322;SDS011;26030;51.164;17.100;2023-03-14T12:27:13;2.70;;;1.70;;
40322;SDS011;26030;51.164;17.100;2023-03-14T12:32:23;4.00;;;1.70;;
40322;SDS011;26030;51.164;17.100;2023-03-14T12:37:42;2.20;;;2.00;;
40322;SDS011;26030;51.164;17.100;2023-03-14T12:43:04;2.00;;;1.90;;
40322;SDS011;26030;51.164;17.100;2023-03-14T12:48:22;2.90;;;2.00;;
40322;SDS011;26030;51.164;17.100;2023-03-14T13:04:14;1.70;;;1.50;;
40322;SDS011;26030;51.164;17.100;2023-03-14T13:14:32;2.40;;;1.80;;
40322;SDS011;26030;51.164;17.100;2023-03-14T13:19:38;1.60;;;1.50;;
40322;SDS011;26030;51.164;17.100;2023-03-14T13:24:42;1.70;;;1.60;;
40322;SDS011;26030;51.164;17.100;2023-03-14T13:29:48;1.50;;;1.40;;
40322;SDS011;26030;51.164;17.100;2023-03-14T13:34:59;1.80;;;1.70;;
40322;SDS011;26030;51.164;17.100;2023-03-14T13:40:04;1.60;;;1.50;;
40322;SDS011;26030;51.164;17.100;2023-03-14T13:45:13;2.20;;;1.70;;
40322;SDS011;26030;51.164;17.100;2023-03-14T13:50:18;2.00;;;1.80;;
40322;SDS011;26030;51.164;17.100;2023-03-14T13:55:22;3.10;;;1.80;;
40322;SDS011;26030;51.164;17.100;2023-03-14T14:00:27;1.90;;;1.80;;
40322;SDS011;26030;51.164;17.100;2023-03-14T14:05:33;1.70;;;1.60;;
40322;SDS011;26030;51.164;17.100;2023-03-14T14:10:41;1.90;;;1.70;;
40322;SDS011;26030;51.164;17.100;2023-03-14T14:15:47;1.90;;;1.60;;
40322;SDS011;26030;51.164;17.100;2023-03-14T14:20:53;2.40;;;2.10;;
40322;SDS011;26030;51.164;17.100;2023-03-14T14:25:59;2.30;;;2.10;;
40322;SDS011;26030;51.164;17.100;2023-03-14T14:36:24;1.90;;;1.70;;
40322;SDS011;26030;51.164;17.100;2023-03-14T14:41:31;3.40;;;2.10;;
40322;SDS011;26030;51.164;17.100;2023-03-14T14:46:36;2.50;;;2.00;;
40322;SDS011;26030;51.164;17.100;2023-03-14T14:51:44;2.40;;;2.20;;
40322;SDS011;26030;51.164;17.100;2023-03-14T14:56:53;3.50;;;2.10;;
40322;SDS011;26030;51.164;17.100;2023-03-14T15:02:01;2.80;;;2.40;;
40322;SDS011;26030;51.164;17.100;2023-03-14T15:07:08;2.50;;;2.30;;
40322;SDS011;26030;51.164;17.100;2023-03-14T15:12:12;3.00;;;1.90;;
40322;SDS011;26030;51.164;17.100;2023-03-14T15:17:16;2.60;;;2.40;;
40322;SDS011;26030;51.164;17.100;2023-03-14T15:22:20;2.30;;;2.10;;
40322;SDS011;26030;51.164;17.100;2023-03-14T15:27:25;2.40;;;2.10;;
40322;SDS011;26030;51.164;17.100;2023-03-14T15:32:29;6.30;;;2.20;;
40322;SDS011;26030;51.164;17.100;2023-03-14T15:37:34;2.20;;;2.00;;
40322;SDS011;26030;51.164;17.100;2023-03-14T15:42:40;4.90;;;2.10;;
40322;SDS011;26030;51.164;17.100;2023-03-14T15:47:44;2.30;;;2.00;;
40322;SDS011;26030;51.164;17.100;2023-03-14T15:52:48;5.20;;;2.50;;
40322;SDS011;26030;51.164;17.100;2023-03-14T15:57:52;3.60;;;2.50;;
40322;SDS011;26030;51.164;17.100;2023-03-14T16:02:56;2.80;;;2.30;;
40322;SDS011;26030;51.164;17.100;2023-03-14T16:08:01;5.40;;;2.50;;
40322;SDS011;26030;51.164;17.100;2023-03-14T16:13:06;10.20;;;2.60;;
40322;SDS011;26030;51.164;17.100;2023-03-14T16:18:11;13.30;;;2.90;;
40322;SDS011;26030;51.164;17.100;2023-03-14T16:23:26;9.60;;;2.60;;
40322;SDS011;26030;51.164;17.100;2023-03-14T16:28:31;6.70;;;3.10;;
40322;SDS011;26030;51.164;17.100;2023-03-14T16:33:37;7.30;;;2.40;;
40322;SDS011;26030;51.164;17.100;2023-03-14T16:38:43;8.40;;;2.80;;
40322;SDS011;26030;51.164;17.100;2023-03-14T16:43:48;5.30;;;2.70;;
40322;SDS011;26030;51.164;17.100;2023-03-14T16:48:57;7.60;;;2.70;;
40322;SDS011;26030;51.164;17.100;2023-03-14T16:54:03;7.10;;;3.10;;
40322;SDS011;26030;51.164;17.100;2023-03-14T16:59:08;7.80;;;2.60;;
40322;SDS011;26030;51.164;17.100;2023-03-14T17:04:12;5.70;;;2.60;;
40322;SDS011;26030;51.164;17.100;2023-03-14T17:09:18;3.10;;;2.30;;
40322;SDS011;26030;51.164;17.100;2023-03-14T17:14:22;4.10;;;2.00;;
40322;SDS011;26030;51.164;17.100;2023-03-14T17:19:27;7.70;;;2.50;;
40322;SDS011;26030;51.164;17.100;2023-03-14T17:24:31;5.50;;;2.20;;
40322;SDS011;26030;51.164;17.100;2023-03-14T17:29:35;3.90;;;2.60;;
40322;SDS011;26030;51.164;17.100;2023-03-14T17:34:40;9.00;;;2.80;;
40322;SDS011;26030;51.164;17.100;2023-03-14T17:39:47;7.00;;;2.70;;
40322;SDS011;26030;51.164;17.100;2023-03-14T17:44:54;6.00;;;2.50;;
40322;SDS011;26030;51.164;17.100;2023-03-14T17:50:01;6.90;;;2.60;;
40322;SDS011;26030;51.164;17.100;2023-03-14T17:55:10;8.60;;;2.70;;
40322;SDS011;26030;51.164;17.100;2023-03-14T18:00:16;2.20;;;2.00;;
40322;SDS011;26030;51.164;17.100;2023-03-14T18:05:22;2.80;;;2.20;;
40322;SDS011;26030;51.164;17.100;2023-03-14T18:10:30;2.90;;;2.60;;
40322;SDS011;26030;51.164;17.100;2023-03-14T18:15:35;2.50;;;2.10;;
40322;SDS011;26030;51.164;17.100;2023-03-14T18:20:46;3.40;;;2.30;;
40322;SDS011;26030;51.164;17.100;2023-03-14T18:25:52;5.40;;;2.40;;
40322;SDS011;26030;51.164;17.100;2023-03-14T18:31:08;4.10;;;2.70;;
40322;SDS011;26030;51.164;17.100;2023-03-14T18:36:15;7.60;;;2.40;;
40322;SDS011;26030;51.164;17.100;2023-03-14T18:41:23;4.40;;;2.40;;
40322;SDS011;26030;51.164;17.100;2023-03-14T18:46:30;9.40;;;3.10;;
40322;SDS011;26030;51.164;17.100;2023-03-14T18:51:37;4.90;;;2.50;;
40322;SDS011;26030;51.164;17.100;2023-03-14T18:56:47;3.70;;;3.20;;
40322;SDS011;26030;51.164;17.100;2023-03-14T19:01:53;4.20;;;2.70;;
40322;SDS011;26030;51.164;17.100;2023-03-14T19:07:02;3.40;;;2.60;;
40322;SDS011;26030;51.164;17.100;2023-03-14T19:12:12;4.00;;;2.60;;
40322;SDS011;26030;51.164;17.100;2023-03-14T19:17:19;4.70;;;2.30;;
40322;SDS011;26030;51.164;17.100;2023-03-14T19:22:28;7.10;;;2.90;;
40322;SDS011;26030;51.164;17.100;2023-03-14T19:27:34;3.20;;;2.50;;
40322;SDS011;26030;51.164;17.100;2023-03-14T19:32:41;4.00;;;2.80;;
40322;SDS011;26030;51.164;17.100;2023-03-14T19:37:48;4.00;;;2.70;;
40322;SDS011;26030;51.164;17.100;2023-03-14T19:43:01;3.50;;;2.70;;
40322;SDS011;26030;51.164;17.100;2023-03-14T19:48:10;2.70;;;2.50;;
40322;SDS011;26030;51.164;17.100;2023-03-14T19:53:17;4.30;;;3.00;;
40322;SDS011;26030;51.164;17.100;2023-03-14T19:58:24;4.30;;;2.40;;
40322;SDS011;26030;51.164;17.100;2023-03-14T20:03:29;3.00;;;2.60;;
40322;SDS011;26030;51.164;17.100;2023-03-14T20:08:38;2.60;;;2.40;;
40322;SDS011;26030;51.164;17.100;2023-03-14T20:13:45;3.30;;;2.20;;
40322;SDS011;26030;51.164;17.100;2023-03-14T20:18:52;4.50;;;2.30;;
40322;SDS011;26030;51.164;17.100;2023-03-14T20:23:59;2.60;;;2.20;;
40322;SDS011;26030;51.164;17.100;2023-03-14T20:29:09;3.80;;;2.80;;
40322;SDS011;26030;51.164;17.100;2023-03-14T20:34:15;2.00;;;1.80;;
40322;SDS011;26030;51.164;17.100;2023-03-14T20:39:23;2.10;;;1.90;;
40322;SDS011;26030;51.164;17.100;2023-03-14T20:44:30;2.20;;;2.00;;
40322;SDS011;26030;51.164;17.100;2023-03-14T20:49:39;3.40;;;1.80;;
40322;SDS011;26030;51.164;17.100;2023-03-14T20:54:45;3.30;;;2.20;;
40322;SDS011;26030;51.164;17.100;2023-03-14T20:59:50;9.20;;;2.30;;
40322;SDS011;26030;51.164;17.100;2023-03-14T21:04:56;4.70;;;2.30;;
40322;SDS011;26030;51.164;17.100;2023-03-14T21:10:03;4.90;;;2.50;;
40322;SDS011;26030;51.164;17.100;2023-03-14T21:15:11;5.90;;;2.20;;
40322;SDS011;26030;51.164;17.100;2023-03-14T21:20:19;3.70;;;2.10;;
40322;SDS011;26030;51.164;17.100;2023-03-14T21:25:24;4.60;;;1.80;;
40322;SDS011;26030;51.164;17.100;2023-03-14T21:30:33;8.80;;;2.30;;
40322;SDS011;26030;51.164;17.100;2023-03-14T21:35:38;7.80;;;1.80;;
40322;SDS011;26030;51.164;17.100;2023-03-14T21:40:42;6.90;;;2.00;;
40322;SDS011;26030;51.164;17.100;2023-03-14T21:45:54;6.00;;;1.90;;
40322;SDS011;26030;51.164;17.100;2023-03-14T21:51:03;4.80;;;2.30;;
40322;SDS011;26030;51.164;17.100;2023-03-14T21:56:12;5.90;;;2.40;;
40322;SDS011;26030;51.164;17.100;2023-03-14T22:01:19;5.70;;;2.30;;
40322;SDS011;26030;51.164;17.100;2023-03-14T22:06:28;5.50;;;1.90;;
40322;SDS011;26030;51.164;17.100;2023-03-14T22:11:32;8.30;;;2.50;;
40322;SDS011;26030;51.164;17.100;2023-03-14T22:16:36;8.50;;;3.10;;
40322;SDS011;26030;51.164;17.100;2023-03-14T22:21:41;9.90;;;3.70;;
40322;SDS011;26030;51.164;17.100;2023-03-14T22:26:55;9.40;;;3.10;;
40322;SDS011;26030;51.164;17.100;2023-03-14T22:32:04;12.50;;;3.80;;
40322;SDS011;26030;51.164;17.100;2023-03-14T22:37:11;10.20;;;3.50;;
40322;SDS011;26030;51.164;17.100;2023-03-14T22:42:18;10.30;;;3.90;;
40322;SDS011;26030;51.164;17.100;2023-03-14T22:47:22;8.50;;;2.90;;
40322;SDS011;26030;51.164;17.100;2023-03-14T22:52:29;7.60;;;3.00;;
40322;SDS011;26030;51.164;17.100;2023-03-14T22:57:34;7.00;;;2.80;;
40322;SDS011;26030;51.164;17.100;2023-03-14T23:08:59;6.50;;;2.60;;
40322;SDS011;26030;51.164;17.100;2023-03-14T23:14:05;6.90;;;2.70;;
40322;SDS011;26030;51.164;17.100;2023-03-14T23:19:09;12.00;;;3.80;;
40322;SDS011;26030;51.164;17.100;2023-03-14T23:24:13;11.70;;;3.90;;
40322;SDS011;26030;51.164;17.100;2023-03-14T23:29:17;13.10;;;4.10;;
40322;SDS011;26030;51.164;17.100;2023-03-14T23:34:21;10.00;;;3.40;;
40322;SDS011;26030;51.164;17.100;2023-03-14T23:39:28;8.00;;;3.40;;
40322;SDS011;26030;51.164;17.100;2023-03-14T23:44:31;7.00;;;3.40;;
40322;SDS011;26030;51.164;17.100;2023-03-14T23:49:36;8.30;;;3.20;;
40322;SDS011;26030;51.164;17.100;2023-03-14T23:54:39;6.20;;;3.10;;
40322;SDS011;26030;51.164;17.100;2023-03-14T23:59:44;5.90;;;2.80;;
